Aeroporto :
LOGIN :

Iscrizione | Disclaimer

   EN    FR    IT 

 










Sommario :    VFR   VFR Marginale   IFR   IFR Intensivo   IFR Molto Intensivo
Visibilità : 
Base nubi : 
>= 8 km
>= 3000ft
5 / 8 km
1000 / 3000 ft
1500m / 5 km
500 / 1000 ft
800 / 1500m
200 / 500 ft
< 800m
< 200 ft
Simboli :   Temporali  Nebbia  Neve Forte  Precipitazioni Forti  Vento > 20 kt
SIGMETs :   Varie  Temporali  Ghiacco  Turbolenza  Onda orograficha  Ceneri Vulcaniche







- Altitudine del aeroporto : 370 ft


EBBE - Beauvechain AB

ULTIMO METAR :
  • 132055Z AUTO 06005KT 9999 NCD M02/M03 Q1020 BLU

METARs OBSOLETI :
  • 132025Z AUTO 06005KT 9999 NCD M02/M03 Q1020 BLU
  • 131955Z AUTO 06006KT 9999 NCD M01/M03 Q1019 BLU
  • 131925Z AUTO 05007KT 9999 NCD M01/M03 Q1019 BLU
  • 131855Z AUTO 05007KT 9999 NCD M01/M03 Q1019 BLU
  • 131825Z AUTO 07007KT 9999 NCD M01/M03 Q1019 BLU
  • 131755Z AUTO 05007KT 9999 NCD M00/M03 Q1019 BLU

TAF TAF EBBE
Valido dal 13 a 19 ore il 14 a 07 ore UTC


131541Z 1319/1407 07007KT 9999 SKC
TEMPO 1323/1407 6000
TEMPO 1402/1407 4000 BR
Nessun NOTAM noto per questo aeroporto.



MetMap, La meteo Aeronautica in un colpo d'occhio ! - Copyright ORBIFLY Dicembre 2007 - Disclaimer

ORBIFLY MET'MAP TEAM :

Programmazione e sviluppo : Alexandra Zaïnal
Concezione e sviluppo : Baudouin d'Aumeries
Co-Programmazione e sviluppo : Marc-Olivier Méhu
Supporto tecnico e logistico : Manuel Goepfert
Aiuto per la traduzione : Arnaldo La Scala

Contatto : metmap@orbifly.com




FONTI E CREDITI :

   NOAA